Broadwell, Illinois
Current Conditions -  °F | °C
As of 3:52 AM on Monday 26 Jan 2015 (Local Time) from KSPI Reporting Station
Clear Clear  
Wind Chill: 14°   Ceiling: Unl
Heat Index: 22°   Visibility: 10mi
Dew Point: 16°   Wind: 6mph
Humidity: 78%   Direction: 320°NW
Pressure: 30.01"   Gusts: NA
Location:  39.9935°N, 89.4758°W
Report Text: KSPI 260952Z AUTO 32005KT 10SM CLR M06/M09 A3001 RMK AO2 SLP169 T10561089
Loading
Personal Weather Stations






























Interactive Weather Map New forecast layout! Learn more

10-Day Weather Forecast

Advertisements
Track Severe Weather on mobile